Time;durP1;ratioP1;P1;durP2;ratioP2;P2;SDS_P1;SDS_P2;PMS_P1;PMS_P2;Temp;Humidity;BMP_temperature;BMP_pressure;BME280_temperature;BME280_humidity;BME280_pressure;Samples;Min_cycle;Max_cycle;Signal;HPM_P1;HPM_P2
2023/07/22 00:02:19;;;;;;;5.00;3.30;;;;;;;19.99;54.73;98677.09;5049060;28;20228;-70
2023/07/22 00:04:45;;;;;;;4.60;2.90;;;;;;;20.12;54.70;98699.00;5049332;28;20045;-69
2023/07/22 00:07:13;;;;;;;6.18;3.25;;;;;;;20.13;54.93;98711.44;5048085;28;20164;-70
2023/07/22 00:09:41;;;;;;;4.50;2.53;;;;;;;20.10;55.13;98706.38;5066128;28;20041;-70
2023/07/22 00:12:08;;;;;;;5.10;2.90;;;;;;;20.05;55.00;98716.78;5066125;28;20044;-70
2023/07/22 00:14:40;;;;;;;6.32;2.97;;;;;;;20.07;54.79;98730.06;5047631;28;20048;-70
2023/07/22 00:17:08;;;;;;;4.45;2.58;;;;;;;20.07;54.98;98722.00;5048098;28;20052;-70
2023/07/22 00:19:35;;;;;;;4.50;2.92;;;;;;;20.03;54.93;98729.56;5066013;28;20103;-70
2023/07/22 00:22:02;;;;;;;4.22;2.85;;;;;;;20.05;55.18;98735.63;5048164;28;20053;-70
2023/07/22 00:24:29;;;;;;;4.72;3.30;;;;;;;20.00;55.24;98735.25;5065289;28;20060;-70
2023/07/22 00:26:55;;;;;;;4.88;3.00;;;;;;;19.95;55.28;98734.03;5065989;28;20041;-70
2023/07/22 00:29:22;;;;;;;3.78;2.78;;;;;;;19.97;55.39;98748.19;5065596;28;20067;-70
2023/07/22 00:31:50;;;;;;;3.35;2.25;;;;;;;19.95;55.57;98755.56;5065400;28;20378;-70
2023/07/22 00:34:17;;;;;;;4.22;3.03;;;;;;;19.89;55.27;98762.41;5065900;28;20041;-70
2023/07/22 00:36:44;;;;;;;3.95;2.38;;;;;;;19.88;55.73;98758.03;5065576;28;20033;-70
2023/07/22 00:39:13;;;;;;;4.75;2.92;;;;;;;19.94;55.72;98764.63;5065860;28;20052;-70
2023/07/22 00:41:42;;;;;;;6.15;2.97;;;;;;;19.76;55.59;98752.03;5047981;28;20292;-70
2023/07/22 00:44:09;;;;;;;4.75;3.00;;;;;;;19.94;55.33;98775.38;5065171;28;20078;-70
2023/07/22 00:46:36;;;;;;;6.07;2.92;;;;;;;19.94;55.87;98770.84;5065770;28;20053;-70
2023/07/22 00:49:08;;;;;;;4.22;2.83;;;;;;;19.95;56.10;98761.78;5065948;28;20240;-70
2023/07/22 00:51:34;;;;;;;3.67;2.72;;;;;;;19.99;55.65;98752.41;5065909;28;20055;-70
2023/07/22 00:54:03;;;;;;;4.20;3.00;;;;;;;20.00;55.76;98764.84;5065521;28;20095;-71
2023/07/22 00:56:33;;;;;;;4.50;3.20;;;;;;;19.96;55.97;98770.69;5047855;28;20036;-70
2023/07/22 00:59:00;;;;;;;5.38;2.47;;;;;;;20.01;55.65;98776.44;5047844;28;20091;-69
2023/07/22 01:01:26;;;;;;;4.43;2.90;;;;;;;19.99;55.73;98784.66;5065346;28;20060;-69
2023/07/22 01:03:57;;;;;;;4.07;2.63;;;;;;;19.94;55.77;98778.91;5065826;28;20045;-69
2023/07/22 01:06:28;;;;;;;5.78;2.83;;;;;;;19.91;55.96;98786.47;5065547;28;20045;-69
2023/07/22 01:08:57;;;;;;;4.43;2.58;;;;;;;20.01;55.88;98798.81;5047689;28;20079;-71
2023/07/22 01:11:25;;;;;;;4.07;2.90;;;;;;;19.73;55.95;98756.88;5065178;28;20037;-70
2023/07/22 01:13:57;;;;;;;4.97;2.63;;;;;;;19.73;56.02;98770.34;5047727;28;20036;-70
2023/07/22 01:16:25;;;;;;;5.05;3.15;;;;;;;19.92;56.19;98806.97;5047665;28;20208;-71
2023/07/22 01:18:53;;;;;;;3.70;2.67;;;;;;;19.95;56.31;98801.28;5031210;28;20119;-70
2023/07/22 01:21:22;;;;;;;4.20;2.78;;;;;;;19.89;56.40;98813.50;5047562;28;20296;-70
2023/07/22 01:23:51;;;;;;;4.13;2.78;;;;;;;19.94;56.28;98826.47;5047749;28;20053;-69
2023/07/22 01:26:18;;;;;;;4.10;2.90;;;;;;;19.87;56.44;98828.94;5065328;28;20045;-70
2023/07/22 01:28:45;;;;;;;4.25;2.72;;;;;;;19.83;56.60;98833.81;5065216;28;20048;-70
2023/07/22 01:31:12;;;;;;;4.35;2.78;;;;;;;19.65;56.77;98808.75;5065821;28;20170;-70
2023/07/22 01:33:39;;;;;;;4.10;2.88;;;;;;;19.88;56.54;98844.09;5064990;28;20232;-70
2023/07/22 01:36:07;;;;;;;5.57;2.88;;;;;;;19.91;56.88;98857.22;5064657;28;20124;-70
2023/07/22 01:38:34;;;;;;;4.22;2.90;;;;;;;19.85;56.72;98852.47;5065186;28;20292;-70
2023/07/22 01:41:02;;;;;;;4.00;3.08;;;;;;;19.84;56.84;98858.84;5065458;28;20052;-70
2023/07/22 01:43:29;;;;;;;3.65;2.70;;;;;;;19.85;56.90;98864.06;5064822;28;20091;-70
2023/07/22 01:45:56;;;;;;;5.72;3.03;;;;;;;19.83;57.13;98875.97;5064789;28;20064;-70
2023/07/22 01:48:23;;;;;;;4.65;3.28;;;;;;;19.77;57.27;98879.25;5047208;28;20293;-69
2023/07/22 01:50:51;;;;;;;4.60;2.92;;;;;;;19.65;57.36;98861.66;5065000;28;20041;-71
2023/07/22 01:53:19;;;;;;;4.45;2.90;;;;;;;19.68;57.25;98869.41;5032308;28;20106;-70
2023/07/22 01:55:45;;;;;;;3.97;2.83;;;;;;;19.87;56.44;98898.88;5067348;28;20196;-69
2023/07/22 01:58:13;;;;;;;4.93;3.08;;;;;;;19.92;56.45;98895.72;5050915;28;20037;-69
2023/07/22 02:00:40;;;;;;;5.88;3.70;;;;;;;19.89;56.88;98902.25;5068602;28;20053;-70
2023/07/22 02:03:07;;;;;;;4.20;2.90;;;;;;;19.69;56.78;98865.72;5068574;28;20094;-70
2023/07/22 02:05:35;;;;;;;5.53;3.42;;;;;;;19.89;56.65;98901.41;5068189;28;20045;-70
2023/07/22 02:08:02;;;;;;;4.80;3.15;;;;;;;19.65;57.02;98893.91;5068474;28;20049;-69
2023/07/22 02:10:29;;;;;;;4.65;3.42;;;;;;;19.74;56.80;98885.78;5068450;28;20049;-70
2023/07/22 02:12:55;;;;;;;4.90;2.65;;;;;;;19.84;57.30;98907.25;5068539;28;20095;-69
2023/07/22 02:15:24;;;;;;;3.88;2.78;;;;;;;19.84;57.21;98908.09;5051196;28;20281;-69
2023/07/22 02:17:51;;;;;;;4.70;2.70;;;;;;;19.89;57.04;98902.25;5068132;28;20059;-69
2023/07/22 02:20:18;;;;;;;5.70;3.35;;;;;;;19.74;57.38;98901.06;5068375;28;20037;-69
2023/07/22 02:22:44;;;;;;;4.45;3.28;;;;;;;19.77;57.31;98904.28;5068007;28;20053;-69
2023/07/22 02:25:11;;;;;;;4.72;3.08;;;;;;;19.53;57.52;98886.09;5051231;28;20196;-69
2023/07/22 02:27:39;;;;;;;6.50;2.90;;;;;;;19.73;57.25;98913.66;5067794;28;20103;-69
2023/07/22 02:30:10;;;;;;;4.40;3.30;;;;;;;19.77;57.40;98927.66;5068002;28;20056;-69
2023/07/22 02:32:38;;;;;;;6.38;3.03;;;;;;;19.72;57.08;98927.25;5068023;28;20090;-69
2023/07/22 02:35:08;;;;;;;8.52;3.38;;;;;;;19.66;57.26;98927.88;5050204;28;20119;-69
2023/07/22 02:37:35;;;;;;;5.47;2.95;;;;;;;19.69;57.63;98933.78;5050215;28;20051;-69
2023/07/22 02:40:07;;;;;;;4.97;3.08;;;;;;;19.75;57.02;98937.72;5067653;28;20319;-69
2023/07/22 02:42:35;;;;;;;6.03;3.30;;;;;;;19.62;57.41;98938.09;5067774;28;20045;-69
2023/07/22 02:45:02;;;;;;;4.97;3.15;;;;;;;19.59;57.77;98934.84;5050126;28;20056;-69
2023/07/22 02:47:29;;;;;;;4.78;3.17;;;;;;;19.65;57.87;98931.56;5050085;28;20052;-69
2023/07/22 02:49:57;;;;;;;4.75;3.20;;;;;;;19.61;57.80;98928.31;5051039;28;20041;-69
2023/07/22 02:52:24;;;;;;;6.65;3.15;;;;;;;19.49;57.53;98903.50;5067957;28;20095;-69
2023/07/22 02:55:06;;;;;;;4.95;3.10;;;;;;;19.63;57.51;98937.09;5067552;28;20053;-68
2023/07/22 02:57:33;;;;;;;3.95;2.80;;;;;;;19.69;57.69;98939.16;5067530;28;20297;-69
2023/07/22 03:00:00;;;;;;;4.05;3.03;;;;;;;19.72;57.45;98946.06;5049761;28;20043;-69
2023/07/22 03:02:27;;;;;;;4.90;3.20;;;;;;;19.66;57.48;98949.38;5033257;28;20079;-70
2023/07/22 03:04:53;;;;;;;5.20;3.03;;;;;;;19.60;57.86;98947.28;5049543;28;20045;-69
2023/07/22 03:07:21;;;;;;;5.30;3.60;;;;;;;19.59;57.92;98951.81;5067110;28;20044;-69
2023/07/22 03:09:48;;;;;;;3.90;2.88;;;;;;;19.54;57.64;98929.94;5067214;28;20052;-69
2023/07/22 03:12:15;;;;;;;5.00;3.60;;;;;;;19.76;57.30;98950.16;5067202;28;20200;-69
2023/07/22 03:14:42;;;;;;;5.88;3.22;;;;;;;19.59;57.85;98937.53;5067179;28;20041;-69
2023/07/22 03:17:09;;;;;;;4.03;3.13;;;;;;;19.69;57.36;98951.75;5067125;28;20185;-69
2023/07/22 03:19:35;;;;;;;6.50;3.10;;;;;;;19.64;57.19;98941.47;5049302;28;20047;-69
2023/07/22 03:22:03;;;;;;;3.83;2.92;;;;;;;19.65;57.17;98940.47;5049238;28;20044;-69
2023/07/22 03:24:33;;;;;;;4.90;3.15;;;;;;;19.53;57.26;98915.66;5066676;28;20375;-69
2023/07/22 03:27:01;;;;;;;4.22;3.03;;;;;;;19.66;57.20;98950.22;5032961;28;20049;-69
2023/07/22 03:29:28;;;;;;;8.93;3.28;;;;;;;19.59;57.31;98949.13;5049849;28;20049;-69
2023/07/22 03:31:57;;;;;;;5.15;3.50;;;;;;;19.60;57.07;98960.72;5049299;28;20044;-69
2023/07/22 03:34:24;;;;;;;4.30;3.00;;;;;;;19.54;57.17;98957.66;5066835;28;20300;-69
2023/07/22 03:36:50;;;;;;;3.20;2.22;;;;;;;19.58;57.15;98960.03;5066684;28;20052;-69
2023/07/22 03:39:17;;;;;;;5.22;3.28;;;;;;;19.45;57.18;98949.66;5066954;28;20037;-69
2023/07/22 03:41:45;;;;;;;4.32;2.97;;;;;;;19.52;56.57;98958.81;5048987;28;20225;-69
2023/07/22 03:44:12;;;;;;;3.95;2.90;;;;;;;19.45;57.12;98953.19;5066880;28;20166;-69
2023/07/22 03:46:39;;;;;;;5.00;2.92;;;;;;;19.45;56.68;98942.44;5066684;28;20044;-69
2023/07/22 03:49:06;;;;;;;6.07;3.30;;;;;;;19.42;56.85;98950.81;5066191;28;20041;-69
2023/07/22 03:51:33;;;;;;;4.55;3.00;;;;;;;19.39;56.96;98947.56;5066521;28;20044;-69
2023/07/22 03:54:00;;;;;;;4.47;3.00;;;;;;;19.27;56.29;98925.41;5048697;28;20041;-69
2023/07/22 03:56:27;;;;;;;4.75;2.70;;;;;;;19.42;56.38;98952.63;5066407;28;20059;-69
2023/07/22 03:58:55;;;;;;;4.18;2.90;;;;;;;19.27;57.13;98949.56;5066594;28;20059;-69
2023/07/22 04:01:22;;;;;;;3.78;2.78;;;;;;;19.34;56.61;98950.66;5065743;28;20079;-69
2023/07/22 04:03:49;;;;;;;4.13;2.50;;;;;;;19.28;56.72;98937.00;5066541;28;20060;-69
2023/07/22 04:06:15;;;;;;;4.03;2.67;;;;;;;19.42;56.20;98958.84;5066213;28;20071;-69
2023/07/22 04:08:42;;;;;;;4.32;2.80;;;;;;;19.39;56.33;98943.03;5048303;28;20036;-69
2023/07/22 04:11:09;;;;;;;3.75;2.78;;;;;;;19.26;56.94;98965.84;5048365;28;20185;-69
2023/07/22 04:13:36;;;;;;;4.68;3.10;;;;;;;19.34;56.56;98974.00;5049129;28;20040;-69
2023/07/22 04:16:05;;;;;;;4.72;2.65;;;;;;;19.30;56.68;98968.09;5066041;28;20045;-69
2023/07/22 04:18:34;;;;;;;5.07;2.83;;;;;;;19.24;56.42;98964.16;5065453;28;20059;-68
2023/07/22 04:21:01;;;;;;;5.93;2.85;;;;;;;19.28;56.60;98958.47;5066266;28;20045;-69
2023/07/22 04:23:28;;;;;;;4.55;2.67;;;;;;;19.22;56.76;98971.53;5048232;28;20057;-69
2023/07/22 04:25:54;;;;;;;3.92;2.72;;;;;;;19.26;56.49;98968.53;5065642;28;20045;-69
2023/07/22 04:28:21;;;;;;;4.80;2.90;;;;;;;19.24;56.79;98966.84;5065787;28;20044;-69
2023/07/22 04:30:57;;;;;;;6.15;2.50;;;;;;;19.27;56.47;98956.78;5048023;28;20044;-68
2023/07/22 04:33:25;;;;;;;6.70;3.10;;;;;;;19.25;56.05;98962.31;5048366;28;20051;-69
2023/07/22 04:35:55;;;;;;;5.53;2.63;;;;;;;19.25;56.26;98967.69;5048098;28;20048;-68
2023/07/22 04:38:22;;;;;;;4.32;2.45;;;;;;;18.97;56.52;98948.03;5065706;28;20056;-69
2023/07/22 04:40:49;;;;;;;5.88;3.20;;;;;;;19.21;56.17;98968.97;5048492;28;20089;-69
2023/07/22 04:43:15;;;;;;;5.80;2.60;;;;;;;19.23;55.98;98970.53;5065729;28;20088;-69
2023/07/22 04:45:42;;;;;;;4.13;2.90;;;;;;;19.26;56.10;98985.50;5065074;28;20041;-69
2023/07/22 04:48:09;;;;;;;4.45;2.83;;;;;;;19.13;55.78;98968.88;5065590;28;20060;-69
2023/07/22 04:50:40;;;;;;;4.10;3.08;;;;;;;19.19;55.94;98998.69;5065529;28;20045;-68
2023/07/22 04:53:07;;;;;;;5.90;3.00;;;;;;;19.28;55.89;98994.25;5065530;28;20045;-68
2023/07/22 04:55:34;;;;;;;4.32;2.85;;;;;;;19.27;56.14;99000.63;5065814;28;20053;-68
2023/07/22 04:58:01;;;;;;;3.63;2.50;;;;;;;19.26;56.19;98993.56;5064983;28;20060;-69
2023/07/22 05:00:28;;;;;;;3.55;2.83;;;;;;;19.15;56.07;98973.09;5065515;28;20041;-68
2023/07/22 05:02:56;;;;;;;3.58;2.40;;;;;;;19.18;56.69;99002.34;5047785;28;20072;-69
2023/07/22 05:05:23;;;;;;;6.97;3.25;;;;;;;19.16;56.80;98998.97;5048286;28;20120;-68
2023/07/22 05:07:52;;;;;;;5.38;3.28;;;;;;;19.28;56.29;99004.16;5065475;28;20051;-69
2023/07/22 05:10:19;;;;;;;4.95;2.78;;;;;;;19.24;56.47;98992.84;5048085;28;20071;-69
2023/07/22 05:12:46;;;;;;;3.15;2.58;;;;;;;19.20;55.92;99007.59;5065696;28;20041;-67
2023/07/22 05:15:14;;;;;;;4.78;3.10;;;;;;;19.05;56.37;98966.94;5047904;28;20041;-68
2023/07/22 05:17:40;;;;;;;4.55;3.25;;;;;;;19.27;56.15;98992.56;5048466;28;20107;-68
2023/07/22 05:20:10;;;;;;;4.43;2.97;;;;;;;19.28;56.57;98983.50;5065322;28;20041;-68
2023/07/22 05:22:36;;;;;;;5.57;2.85;;;;;;;19.25;56.54;99002.63;5065253;28;20293;-69
2023/07/22 05:25:06;;;;;;;3.97;2.78;;;;;;;19.30;55.96;98991.41;5064890;28;20067;-68
2023/07/22 05:27:33;;;;;;;6.13;3.45;;;;;;;19.00;56.10;98934.28;5065259;28;20053;-69
2023/07/22 05:30:00;;;;;;;5.72;3.15;;;;;;;19.11;56.53;98966.34;5049819;28;20036;-69
2023/07/22 05:32:28;;;;;;;4.05;3.10;;;;;;;19.33;56.05;98978.53;5051356;28;20266;-69
2023/07/22 05:34:56;;;;;;;3.92;2.85;;;;;;;19.35;56.28;99000.72;5069142;28;20074;-69
2023/07/22 05:37:23;;;;;;;3.65;2.70;;;;;;;18.77;56.19;98906.97;5051318;28;20036;-69
2023/07/22 05:39:49;;;;;;;6.57;3.00;;;;;;;19.21;56.17;98967.13;5069071;28;20300;-68
2023/07/22 05:42:17;;;;;;;4.40;3.00;;;;;;;19.34;56.51;98999.03;5068993;28;20095;-69
2023/07/22 05:44:44;;;;;;;3.67;2.80;;;;;;;18.76;56.81;98924.06;5051441;28;20087;-69
2023/07/22 05:47:11;;;;;;;5.40;3.40;;;;;;;19.32;56.72;99001.03;5069171;28;20047;-69
2023/07/22 05:49:38;;;;;;;4.97;3.20;;;;;;;19.51;56.30;99000.13;5050968;28;20087;-69
2023/07/22 05:52:05;;;;;;;4.75;2.67;;;;;;;19.43;56.58;99011.59;5051017;28;20041;-69
2023/07/22 05:54:32;;;;;;;3.80;2.60;;;;;;;19.52;56.32;99008.03;5068411;28;20098;-69
2023/07/22 05:56:59;;;;;;;3.67;2.63;;;;;;;19.55;56.17;99013.09;5069280;28;20228;-69
2023/07/22 05:59:27;;;;;;;7.10;3.42;;;;;;;19.51;56.16;99021.63;5068923;28;20051;-68
2023/07/22 06:01:55;;;;;;;4.47;3.00;;;;;;;19.48;55.87;99020.06;5050505;28;20044;-69
2023/07/22 06:04:21;;;;;;;4.35;3.35;;;;;;;19.48;56.28;99009.31;5068238;28;20041;-70
2023/07/22 06:06:48;;;;;;;6.38;3.05;;;;;;;19.54;56.55;99010.56;5068744;28;20041;-70
2023/07/22 06:09:15;;;;;;;4.50;3.65;;;;;;;19.53;56.31;99014.25;5068638;28;20049;-70
2023/07/22 06:11:42;;;;;;;4.50;3.28;;;;;;;19.55;56.25;99009.56;5068021;28;20047;-70
2023/07/22 06:14:09;;;;;;;4.60;2.70;;;;;;;19.58;56.50;99027.25;5067692;28;20082;-70
2023/07/22 06:16:37;;;;;;;5.90;3.17;;;;;;;19.63;56.19;99006.13;5051045;28;20124;-70
2023/07/22 06:19:04;;;;;;;4.50;3.67;;;;;;;19.67;56.01;99007.53;5068214;28;20280;-69
2023/07/22 06:21:31;;;;;;;4.68;3.25;;;;;;;19.74;56.57;99012.16;5068250;28;20200;-70
2023/07/22 06:23:57;;;;;;;3.75;3.00;;;;;;;19.34;55.51;98945.28;5067998;28;20061;-70
2023/07/22 06:26:24;;;;;;;5.75;3.20;;;;;;;19.78;54.99;99004.63;5050796;28;20196;-70
2023/07/22 06:28:54;;;;;;;5.10;3.05;;;;;;;19.69;55.09;99014.44;5068568;28;20041;-70
2023/07/22 06:31:21;;;;;;;4.10;3.38;;;;;;;19.71;55.18;99007.06;5050950;28;20041;-67
2023/07/22 06:33:49;;;;;;;5.95;4.03;;;;;;;19.74;54.73;99014.00;5049991;28;20044;-68
2023/07/22 06:36:17;;;;;;;5.15;3.00;;;;;;;19.75;54.43;99016.53;5050507;28;20059;-68
2023/07/22 06:38:44;;;;;;;3.88;2.80;;;;;;;19.49;53.50;98985.97;5067648;28;20218;-67
2023/07/22 06:41:11;;;;;;;5.90;2.88;;;;;;;19.75;53.40;99013.00;5049587;28;20075;-67
2023/07/22 06:43:37;;;;;;;3.80;2.65;;;;;;;19.78;53.17;99024.28;5050108;28;20063;-67
2023/07/22 06:46:04;;;;;;;4.38;2.83;;;;;;;19.53;53.54;98988.22;5067765;28;20052;-68
2023/07/22 06:48:31;;;;;;;4.85;2.60;;;;;;;19.88;52.50;99037.72;5049917;28;20304;-68
2023/07/22 06:50:59;;;;;;;3.63;2.40;;;;;;;19.83;51.79;99042.69;5067352;28;20220;-69
2023/07/22 06:53:25;;;;;;;3.85;2.55;;;;;;;19.67;51.62;99026.34;5067386;28;20269;-69
2023/07/22 06:55:53;;;;;;;5.45;2.90;;;;;;;19.88;51.48;99051.16;5067804;28;20320;-68
2023/07/22 06:58:20;;;;;;;6.28;3.15;;;;;;;19.95;51.09;99041.47;5050001;28;20041;-69
2023/07/22 07:00:47;;;;;;;3.70;2.33;;;;;;;19.90;51.36;99030.34;5049903;28;20213;-69
2023/07/22 07:03:13;;;;;;;3.92;2.70;;;;;;;20.01;50.32;99061.53;5067158;28;20045;-69
2023/07/22 07:05:41;;;;;;;3.50;2.65;;;;;;;20.11;50.22;99068.56;5067185;28;20041;-68
2023/07/22 07:08:11;;;;;;;3.75;2.38;;;;;;;20.00;49.59;99066.06;5066828;28;20076;-69
2023/07/22 07:10:39;;;;;;;3.60;2.70;;;;;;;19.81;49.80;99004.34;5067442;28;20045;-69
2023/07/22 07:13:06;;;;;;;3.88;2.80;;;;;;;17.94;48.73;98669.09;5049357;28;20116;-69
2023/07/22 07:15:33;;;;;;;3.25;2.10;;;;;;;20.44;47.99;99074.28;5049399;28;20044;-69
2023/07/22 07:17:59;;;;;;;3.55;2.35;;;;;;;20.48;47.66;99089.97;5067084;28;20048;-69
2023/07/22 07:20:26;;;;;;;3.83;2.50;;;;;;;20.28;47.32;99069.59;5049439;28;20037;-69
2023/07/22 07:22:53;;;;;;;7.82;3.70;;;;;;;20.57;48.04;99063.97;5066492;28;20095;-69
2023/07/22 07:25:21;;;;;;;3.60;2.67;;;;;;;21.02;47.31;99093.50;5049781;28;20041;-69
2023/07/22 07:27:48;;;;;;;3.55;2.35;;;;;;;20.76;46.61;99052.19;5066354;28;20053;-69
2023/07/22 07:30:15;;;;;;;4.53;2.80;;;;;;;21.04;46.61;99077.16;5066761;28;20048;-69
2023/07/22 07:32:42;;;;;;;3.38;2.00;;;;;;;21.23;46.36;99085.03;5049540;28;20041;-69
2023/07/22 07:35:09;;;;;;;4.70;2.40;;;;;;;21.11;45.45;99076.38;5066516;28;20387;-69
2023/07/22 07:37:36;;;;;;;5.22;2.55;;;;;;;21.01;45.28;99051.34;5066970;28;20049;-69
2023/07/22 07:40:04;;;;;;;3.63;2.53;;;;;;;20.95;45.29;99037.69;5049422;28;20037;-69
2023/07/22 07:42:32;;;;;;;3.88;2.55;;;;;;;21.37;45.62;99064.75;5049158;28;20076;-69
2023/07/22 07:44:58;;;;;;;4.95;2.40;;;;;;;21.22;45.12;99031.31;5066459;28;20048;-69
2023/07/22 07:47:26;;;;;;;7.18;2.80;;;;;;;21.72;45.61;99051.09;5048552;28;20056;-70
2023/07/22 07:49:53;;;;;;;4.50;2.75;;;;;;;21.91;44.59;99068.88;5048630;28;20044;-68
2023/07/22 07:52:20;;;;;;;3.03;1.95;;;;;;;21.85;44.23;99061.44;5065877;28;20048;-69
2023/07/22 07:54:47;;;;;;;5.45;2.83;;;;;;;21.81;44.39;99067.34;5066369;28;20045;-68
2023/07/22 07:57:13;;;;;;;4.47;2.45;;;;;;;21.87;44.09;99061.28;5065994;28;20316;-69
2023/07/22 07:59:41;;;;;;;3.65;2.45;;;;;;;22.21;44.60;99066.59;5065947;28;20052;-69
2023/07/22 08:02:10;;;;;;;3.70;2.47;;;;;;;22.17;43.88;99049.91;5066127;28;20037;-69
2023/07/22 08:04:37;;;;;;;5.00;2.67;;;;;;;22.28;43.69;99057.69;5065777;28;20041;-69
2023/07/22 08:07:04;;;;;;;3.65;2.47;;;;;;;22.25;43.67;99057.16;5065848;28;20045;-69
2023/07/22 08:09:31;;;;;;;3.85;2.28;;;;;;;22.20;43.94;99056.81;5065876;28;20092;-69
2023/07/22 08:11:58;;;;;;;3.72;2.50;;;;;;;21.93;43.75;99069.56;5065967;28;20041;-69
2023/07/22 08:14:25;;;;;;;3.80;2.65;;;;;;;21.78;44.03;99072.00;5066088;28;20045;-69
2023/07/22 08:16:53;;;;;;;3.20;2.20;;;;;;;21.97;44.18;99076.34;5048153;28;20094;-69
2023/07/22 08:19:19;;;;;;;2.92;2.28;;;;;;;22.04;43.81;99076.53;5066116;28;20200;-68
2023/07/22 08:21:46;;;;;;;5.72;2.65;;;;;;;21.63;43.76;99027.78;5065986;28;20055;-69
2023/07/22 08:24:13;;;;;;;4.78;2.75;;;;;;;21.75;43.50;99072.34;5065675;28;20321;-68
2023/07/22 08:26:39;;;;;;;4.88;2.33;;;;;;;21.97;43.49;99087.13;5048501;28;20063;-69
2023/07/22 08:29:06;;;;;;;3.95;2.60;;;;;;;22.12;43.35;99075.69;5047884;28;20053;-69
2023/07/22 08:31:33;;;;;;;3.80;2.45;;;;;;;22.24;43.31;99083.31;5048298;28;20182;-69
2023/07/22 08:34:01;;;;;;;3.05;2.05;;;;;;;22.43;43.87;99087.59;5065498;28;20175;-69
2023/07/22 08:36:28;;;;;;;4.22;2.65;;;;;;;22.83;43.96;99083.28;5065435;28;20251;-69
2023/07/22 08:38:54;;;;;;;4.45;2.60;;;;;;;22.83;42.22;99091.38;5066319;28;20228;-68
2023/07/22 08:41:22;;;;;;;3.83;2.72;;;;;;;23.06;41.81;99084.25;5065377;28;20083;-69
2023/07/22 08:43:51;;;;;;;5.15;3.10;;;;;;;23.02;41.65;99088.31;5065547;28;20049;-69
2023/07/22 08:46:21;;;;;;;5.10;2.90;;;;;;;23.07;42.11;99090.53;5065749;28;20063;-69
2023/07/22 08:48:50;;;;;;;4.10;2.55;;;;;;;22.76;41.74;99090.34;5065608;28;20099;-69
2023/07/22 08:51:18;;;;;;;4.70;2.33;;;;;;;22.77;41.71;99089.34;5065416;28;20154;-69
2023/07/22 08:53:46;;;;;;;3.47;2.25;;;;;;;22.67;40.90;99093.06;5065196;28;20053;-69
2023/07/22 08:56:13;;;;;;;5.28;2.10;;;;;;;22.62;40.80;99092.72;5065166;28;20281;-69
2023/07/22 08:58:42;;;;;;;3.75;2.15;;;;;;;23.06;40.86;99100.47;5065395;28;20115;-69
2023/07/22 09:01:09;;;;;;;3.97;2.63;;;;;;;22.99;40.15;99002.19;5065545;28;20098;-69
2023/07/22 09:03:39;;;;;;;8.43;3.15;;;;;;;23.35;39.17;99081.88;5032178;28;20037;-71
2023/07/22 09:06:06;;;;;;;4.60;3.08;;;;;;;23.41;38.86;99047.06;5035322;28;20059;-70
2023/07/22 09:08:34;;;;;;;3.35;2.30;;;;;;;24.03;39.38;99090.47;5069447;28;20060;-70
2023/07/22 09:11:02;;;;;;;3.45;2.65;;;;;;;23.88;38.76;99072.22;5069015;28;20045;-70
2023/07/22 09:13:29;;;;;;;3.78;2.30;;;;;;;23.94;38.39;99095.03;5069281;28;20036;-70
2023/07/22 09:15:58;;;;;;;3.28;2.17;;;;;;;23.93;38.18;99094.19;5069421;28;20049;-70
2023/07/22 09:18:26;;;;;;;3.58;2.38;;;;;;;24.22;38.13;99087.31;5051866;28;20056;-70
2023/07/22 09:20:53;;;;;;;5.43;2.55;;;;;;;24.38;37.65;99089.91;5068975;28;20116;-70
2023/07/22 09:23:32;;;;;;;3.45;2.13;;;;;;;24.52;37.65;99077.47;5052020;28;20107;-70
2023/07/22 09:26:11;;;;;;;3.60;2.30;;;;;;;24.03;37.49;99102.13;5069465;28;20107;-70
2023/07/22 09:28:52;;;;;;;3.50;2.13;;;;;;;23.98;37.62;99107.22;5069428;28;20071;-70
2023/07/22 09:31:19;;;;;;;3.28;2.38;;;;;;;23.92;37.92;99097.91;5069325;28;20087;-70
2023/07/22 09:33:46;;;;;;;3.30;2.08;;;;;;;23.96;37.87;99103.81;5069005;28;20170;-70
2023/07/22 09:36:13;;;;;;;4.53;2.60;;;;;;;23.84;37.80;99084.41;5069309;28;20041;-70
2023/07/22 09:38:40;;;;;;;3.63;2.20;;;;;;;23.82;38.00;99089.16;5069185;28;20049;-70
2023/07/22 09:41:08;;;;;;;3.63;2.42;;;;;;;23.93;38.04;99099.59;5068663;28;20036;-70
2023/07/22 09:43:39;;;;;;;4.20;2.42;;;;;;;24.13;37.48;99091.94;5068700;28;20049;-70
2023/07/22 09:46:10;;;;;;;3.50;2.40;;;;;;;24.26;37.43;99094.91;5051157;28;20089;-70
2023/07/22 09:48:42;;;;;;;3.40;2.38;;;;;;;24.36;36.87;99089.25;5068484;28;20041;-70
2023/07/22 09:51:14;;;;;;;3.90;2.60;;;;;;;24.66;37.31;99087.53;5068439;28;20056;-70
2023/07/22 09:53:47;;;;;;;3.17;2.17;;;;;;;24.78;36.96;99087.97;5051401;28;20124;-70
2023/07/22 09:56:14;;;;;;;3.33;2.23;;;;;;;24.79;36.94;99087.78;5068232;28;20284;-70
2023/07/22 09:58:48;;;;;;;3.70;2.40;;;;;;;24.57;36.59;99088.59;5068116;28;20037;-70
2023/07/22 10:01:18;;;;;;;3.53;2.35;;;;;;;24.66;36.16;99084.00;5068211;28;20064;-70
2023/07/22 10:03:46;;;;;;;3.70;2.35;;;;;;;24.79;36.13;99087.78;5050814;28;20044;-70
2023/07/22 10:06:15;;;;;;;3.60;2.33;;;;;;;24.85;36.61;99083.50;5068593;28;20052;-70
2023/07/22 10:08:47;;;;;;;4.22;2.30;;;;;;;24.80;35.67;99053.38;5067865;28;20052;-70
2023/07/22 10:11:16;;;;;;;4.35;2.47;;;;;;;25.17;35.28;99066.97;5050503;28;20033;-70
2023/07/22 10:13:45;;;;;;;6.20;2.30;;;;;;;25.36;34.12;99068.31;5050359;28;20048;-71
2023/07/22 10:16:12;;;;;;;4.70;2.60;;;;;;;25.42;34.41;99074.88;5049565;28;20052;-71
2023/07/22 10:18:41;;;;;;;4.38;2.20;;;;;;;25.41;34.99;99122.03;5049884;28;20052;-70
2023/07/22 10:21:08;;;;;;;3.78;2.40;;;;;;;24.95;34.09;99074.09;5050590;28;20139;-70
2023/07/22 10:23:37;;;;;;;3.10;2.03;;;;;;;24.82;33.81;99056.75;5067708;28;20055;-70
2023/07/22 10:26:06;;;;;;;3.08;2.13;;;;;;;24.71;33.58;99065.31;5067779;28;20118;-71
2023/07/22 10:28:34;;;;;;;2.55;1.85;;;;;;;24.66;33.70;99065.88;5050110;28;20391;-70
2023/07/22 10:31:02;;;;;;;3.83;2.53;;;;;;;24.72;33.95;99061.59;5067791;28;20056;-69
2023/07/22 10:33:29;;;;;;;3.70;2.22;;;;;;;24.55;33.99;99061.69;5067622;28;20094;-70
2023/07/22 10:36:07;;;;;;;3.33;2.05;;;;;;;24.60;34.29;99053.84;5049911;28;20217;-69
2023/07/22 10:38:34;;;;;;;3.55;2.58;;;;;;;24.92;34.34;99046.50;5049884;28;20087;-69
2023/07/22 10:41:01;;;;;;;3.92;2.25;;;;;;;24.92;34.58;99050.06;5049772;28;20079;-69
2023/07/22 10:43:31;;;;;;;4.35;2.47;;;;;;;24.80;33.97;99048.81;5067599;28;20040;-70
2023/07/22 10:46:00;;;;;;;3.53;2.05;;;;;;;22.51;34.28;98609.66;5050142;28;20049;-70
2023/07/22 10:48:35;;;;;;;3.17;2.10;;;;;;;25.13;33.72;99046.66;5049099;28;20049;-70
2023/07/22 10:51:07;;;;;;;3.85;2.20;;;;;;;25.02;33.81;99044.41;5067150;28;20041;-70
2023/07/22 10:53:38;;;;;;;3.50;2.22;;;;;;;24.90;34.01;99018.75;5067430;28;20063;-70
2023/07/22 10:56:24;;;;;;;3.47;2.08;;;;;;;25.16;33.50;99040.88;5049606;28;20079;-70
2023/07/22 10:58:58;;;;;;;3.53;2.72;;;;;;;24.63;34.96;98955.97;5050648;28;20056;-71
2023/07/22 11:01:32;;;;;;;3.53;2.50;;;;;;;25.20;33.28;99034.06;5067409;28;20051;-71
2023/07/22 11:04:13;;;;;;;3.80;2.65;;;;;;;25.28;34.05;99036.69;5067337;28;20106;-71
2023/07/22 11:06:52;;;;;;;4.05;2.63;;;;;;;25.21;34.40;99030.31;5066892;28;20289;-70
2023/07/22 11:09:38;;;;;;;3.33;2.13;;;;;;;25.16;33.81;99034.59;5066642;28;20048;-70
2023/07/22 11:12:07;;;;;;;3.30;2.00;;;;;;;25.17;34.06;99029.00;5066958;28;20048;-71
2023/07/22 11:14:36;;;;;;;4.30;2.00;;;;;;;25.26;33.71;99033.31;5050015;28;20044;-71
2023/07/22 11:17:05;;;;;;;3.72;2.28;;;;;;;24.52;33.31;98921.19;5067086;28;20044;-70
2023/07/22 11:19:34;;;;;;;3.70;2.20;;;;;;;25.14;33.72;99028.53;5066975;28;20048;-69
2023/07/22 11:22:01;;;;;;;3.63;2.50;;;;;;;25.29;33.39;99029.38;5049320;28;20304;-70
2023/07/22 11:24:29;;;;;;;3.17;2.08;;;;;;;25.24;33.95;99038.06;5048986;28;20115;-70
2023/07/22 11:26:56;;;;;;;3.35;2.40;;;;;;;25.21;34.61;98995.06;5066726;28;20265;-70
2023/07/22 11:29:25;;;;;;;3.92;2.63;;;;;;;25.33;33.93;99010.91;5066662;28;20167;-69
2023/07/22 11:31:52;;;;;;;3.40;2.60;;;;;;;25.41;33.67;99014.34;5048971;28;20293;-70
2023/07/22 11:34:21;;;;;;;3.80;2.30;;;;;;;25.43;33.59;99009.59;5066752;28;20200;-70
2023/07/22 11:36:50;;;;;;;5.15;3.13;;;;;;;25.17;34.22;98958.50;5066097;28;20053;-70
2023/07/22 11:39:19;;;;;;;3.70;2.33;;;;;;;25.47;33.99;99015.47;5066866;28;20228;-69